createdAt,value
2018-09-26T00:01:33.569Z,4.00
2018-09-26T00:04:13.635Z,3.63
2018-09-26T00:06:42.948Z,3.43
2018-09-26T00:09:13.037Z,3.67
2018-09-26T00:11:42.288Z,3.70
2018-09-26T00:14:11.678Z,3.67
2018-09-26T00:16:41.004Z,3.50
2018-09-26T00:19:10.328Z,3.80
2018-09-26T00:21:39.707Z,3.60
2018-09-26T00:24:09.036Z,3.23
2018-09-26T00:26:38.340Z,2.97
2018-09-26T00:29:07.600Z,3.30
2018-09-26T00:31:36.850Z,3.20
2018-09-26T00:34:06.116Z,3.07
2018-09-26T00:36:35.504Z,3.67
2018-09-26T00:39:07.787Z,3.10
2018-09-26T00:41:37.105Z,3.17
2018-09-26T00:44:06.407Z,3.60
2018-09-26T00:46:36.775Z,3.07
2018-09-26T00:49:06.168Z,3.20
2018-09-26T00:51:35.442Z,3.03
2018-09-26T00:54:04.736Z,3.10
2018-09-26T00:56:34.536Z,2.80
2018-09-26T00:59:03.830Z,2.80
2018-09-26T01:01:33.200Z,3.37
2018-09-26T01:04:02.706Z,3.07
2018-09-26T01:06:31.984Z,3.30
2018-09-26T01:09:01.281Z,2.70
2018-09-26T01:11:30.543Z,2.67
2018-09-26T01:13:59.811Z,2.60
2018-09-26T01:16:29.026Z,2.50
2018-09-26T01:18:58.889Z,2.57
2018-09-26T01:21:28.179Z,2.87
2018-09-26T01:23:57.508Z,2.80
2018-09-26T01:26:26.790Z,2.53
2018-09-26T01:28:56.116Z,2.37
2018-09-26T01:31:25.588Z,2.43
2018-09-26T01:33:54.860Z,2.00
2018-09-26T01:36:24.190Z,2.33
2018-09-26T01:38:53.831Z,2.03
2018-09-26T01:41:23.446Z,2.47
2018-09-26T01:43:52.733Z,2.00
2018-09-26T01:46:26.188Z,1.90
2018-09-26T01:48:55.403Z,2.00
2018-09-26T01:51:24.699Z,1.90
2018-09-26T01:53:53.930Z,1.97
2018-09-26T01:56:23.213Z,1.97
2018-09-26T01:58:52.802Z,1.53
2018-09-26T02:01:22.420Z,2.20
2018-09-26T02:03:51.704Z,1.73
2018-09-26T02:06:20.958Z,2.00
2018-09-26T02:08:50.231Z,1.70
2018-09-26T02:11:19.911Z,1.77
2018-09-26T02:13:49.676Z,1.60
2018-09-26T02:16:18.919Z,1.90
2018-09-26T02:18:48.195Z,1.87
2018-09-26T02:21:17.718Z,2.00
2018-09-26T02:23:47.288Z,2.03
2018-09-26T02:26:16.629Z,1.70
2018-09-26T02:28:45.887Z,1.60
2018-09-26T02:31:15.243Z,1.60
2018-09-26T02:33:44.531Z,1.87
2018-09-26T02:36:13.859Z,1.70
2018-09-26T02:38:43.215Z,1.40
2018-09-26T02:41:12.520Z,1.80
2018-09-26T02:43:41.804Z,1.70
2018-09-26T02:46:11.109Z,1.30
2018-09-26T02:48:45.538Z,1.60
2018-09-26T02:51:15.304Z,1.60
2018-09-26T02:53:44.851Z,1.70
2018-09-26T02:56:14.125Z,1.47
2018-09-26T02:58:43.625Z,1.63
2018-09-26T03:01:12.947Z,1.60
2018-09-26T03:03:42.256Z,1.60
2018-09-26T03:06:11.856Z,1.53
2018-09-26T03:08:41.055Z,1.50
2018-09-26T03:11:10.263Z,1.40
2018-09-26T03:13:39.555Z,1.70
2018-09-26T03:16:08.799Z,1.53
2018-09-26T03:18:38.499Z,1.60
2018-09-26T03:21:07.803Z,1.70
2018-09-26T03:23:37.092Z,1.60
2018-09-26T03:26:06.444Z,1.70
2018-09-26T03:28:35.737Z,1.73
2018-09-26T03:31:05.191Z,1.53
2018-09-26T03:33:34.473Z,1.80
2018-09-26T03:36:04.135Z,1.90
2018-09-26T03:38:33.722Z,1.60
2018-09-26T03:41:02.997Z,1.57
2018-09-26T03:43:32.242Z,1.30
2018-09-26T03:46:01.536Z,1.60
2018-09-26T03:48:30.888Z,1.70
2018-09-26T03:51:00.154Z,1.37
2018-09-26T03:53:29.509Z,1.60
2018-09-26T03:55:58.823Z,1.77
2018-09-26T03:58:28.159Z,1.70
2018-09-26T04:00:57.447Z,1.43
2018-09-26T04:03:27.021Z,1.43
2018-09-26T04:05:56.273Z,1.53
2018-09-26T04:08:25.559Z,1.50
2018-09-26T04:10:54.832Z,1.53
2018-09-26T04:13:24.022Z,1.40
2018-09-26T04:15:54.344Z,1.60
2018-09-26T04:18:25.959Z,1.73
2018-09-26T04:20:55.942Z,2.00
2018-09-26T04:23:25.192Z,1.70
2018-09-26T04:25:54.447Z,1.70
2018-09-26T04:28:23.764Z,1.40
2018-09-26T04:30:52.994Z,1.40
2018-09-26T04:33:22.442Z,1.50
2018-09-26T04:35:51.858Z,1.90
2018-09-26T04:38:21.142Z,1.60
2018-09-26T04:40:50.410Z,1.87
2018-09-26T04:43:19.772Z,1.73
2018-09-26T04:45:48.939Z,1.53
2018-09-26T04:48:18.231Z,1.77
2018-09-26T04:50:47.643Z,1.40
2018-09-26T04:53:17.118Z,1.50
2018-09-26T04:55:46.708Z,1.50
2018-09-26T04:58:16.010Z,1.70
2018-09-26T05:00:45.413Z,1.90
2018-09-26T05:03:14.630Z,1.43
2018-09-26T05:05:43.927Z,1.60
2018-09-26T05:08:13.260Z,1.60
2018-09-26T05:10:42.499Z,1.97
2018-09-26T05:13:12.036Z,1.60
2018-09-26T05:15:41.289Z,1.70
2018-09-26T05:18:10.632Z,1.67
2018-09-26T05:20:40.170Z,1.60
2018-09-26T05:23:09.556Z,1.63
2018-09-26T05:25:38.768Z,1.93
2018-09-26T05:28:08.135Z,1.50
2018-09-26T05:30:37.367Z,1.87
2018-09-26T05:33:06.989Z,1.40
2018-09-26T05:35:36.254Z,1.70
2018-09-26T05:38:05.555Z,1.40
2018-09-26T05:40:34.791Z,2.00
2018-09-26T05:43:04.124Z,2.03
2018-09-26T05:45:33.767Z,1.67
2018-09-26T05:48:03.042Z,1.87
2018-09-26T05:50:32.399Z,1.67
2018-09-26T05:53:01.667Z,1.93
2018-09-26T05:55:30.972Z,1.60
2018-09-26T05:58:00.285Z,1.40
2018-09-26T06:00:29.543Z,1.60
2018-09-26T06:02:58.913Z,1.57
2018-09-26T06:05:28.152Z,1.50
2018-09-26T06:07:57.425Z,1.30
2018-09-26T06:10:26.680Z,1.27
2018-09-26T06:12:56.043Z,1.70
2018-09-26T06:15:25.227Z,1.53
2018-09-26T06:17:54.800Z,1.57
2018-09-26T06:20:24.137Z,2.17
2018-09-26T06:22:53.504Z,1.70
2018-09-26T06:25:22.805Z,1.37
2018-09-26T06:27:52.059Z,1.03
2018-09-26T06:30:21.326Z,1.37
2018-09-26T06:32:50.583Z,1.33
2018-09-26T06:35:19.894Z,1.80
2018-09-26T06:37:50.088Z,1.30
2018-09-26T06:40:19.370Z,1.60
2018-09-26T06:42:48.737Z,1.70
2018-09-26T06:45:19.125Z,1.27
2018-09-26T06:47:48.810Z,1.53
2018-09-26T06:50:18.096Z,1.50
2018-09-26T06:52:47.367Z,1.37
2018-09-26T06:55:16.655Z,1.60
2018-09-26T06:57:46.227Z,2.30
2018-09-26T07:00:15.537Z,1.43
2018-09-26T07:02:44.797Z,1.60
2018-09-26T07:05:14.356Z,1.80
2018-09-26T07:07:43.711Z,1.50
2018-09-26T07:10:12.948Z,1.60
2018-09-26T07:12:42.304Z,1.77
2018-09-26T07:15:11.547Z,1.17
2018-09-26T07:17:41.937Z,1.40
2018-09-26T07:20:11.245Z,1.47
2018-09-26T07:22:40.600Z,1.80
2018-09-26T07:25:09.900Z,1.60
2018-09-26T07:27:39.202Z,1.57
2018-09-26T07:30:08.579Z,1.30
2018-09-26T07:32:37.852Z,1.63
2018-09-26T07:35:07.326Z,1.60
2018-09-26T07:37:36.520Z,3.13
2018-09-26T07:40:07.407Z,2.00
2018-09-26T07:42:36.632Z,1.63
2018-09-26T07:45:06.039Z,1.47
2018-09-26T07:47:35.698Z,1.50
2018-09-26T07:50:05.061Z,2.10
2018-09-26T07:52:34.629Z,1.50
2018-09-26T07:55:03.954Z,1.37
2018-09-26T07:57:33.208Z,1.70
2018-09-26T08:00:02.541Z,1.40
2018-09-26T08:02:31.745Z,1.53
2018-09-26T08:05:01.029Z,1.50
2018-09-26T08:07:30.325Z,1.30
2018-09-26T08:09:59.652Z,2.37
2018-09-26T08:12:28.989Z,1.27
2018-09-26T08:14:58.300Z,1.23
2018-09-26T08:17:27.580Z,1.67
2018-09-26T08:19:56.832Z,1.67
2018-09-26T08:22:26.119Z,1.20
2018-09-26T08:24:55.376Z,1.87
2018-09-26T08:27:24.683Z,1.43
2018-09-26T08:29:53.946Z,1.37
2018-09-26T08:32:23.563Z,1.80
2018-09-26T08:34:52.859Z,2.40
2018-09-26T08:37:22.163Z,2.00
2018-09-26T08:39:51.799Z,2.20
2018-09-26T08:42:21.167Z,2.03
2018-09-26T08:44:50.439Z,1.67
2018-09-26T08:47:19.732Z,1.80
2018-09-26T08:49:53.067Z,2.20
2018-09-26T08:52:22.599Z,1.93
2018-09-26T08:54:51.859Z,1.90
2018-09-26T08:57:21.139Z,1.73
2018-09-26T08:59:50.471Z,1.70
2018-09-26T09:02:19.802Z,6.13
2018-09-26T09:04:50.151Z,2.33
2018-09-26T09:07:19.445Z,2.03
2018-09-26T09:09:48.712Z,1.73
2018-09-26T09:12:18.011Z,1.60
2018-09-26T09:14:47.420Z,1.87
2018-09-26T09:17:16.568Z,1.70
2018-09-26T09:19:45.869Z,1.80
2018-09-26T09:22:15.139Z,1.70
2018-09-26T09:24:46.498Z,1.77
2018-09-26T09:29:53.618Z,1.60
2018-09-26T09:32:22.955Z,1.50
2018-09-26T09:34:52.151Z,1.80
2018-09-26T09:37:21.460Z,1.57
2018-09-26T09:39:50.740Z,1.87
2018-09-26T09:42:19.966Z,1.73
2018-09-26T09:44:49.290Z,1.83
2018-09-26T09:47:19.655Z,1.73
2018-09-26T09:49:48.951Z,2.07
2018-09-26T09:52:18.314Z,2.00
2018-09-26T09:54:47.752Z,1.80
2018-09-26T09:57:17.049Z,2.03
2018-09-26T09:59:46.303Z,1.90
2018-09-26T10:02:15.621Z,1.93
2018-09-26T10:04:44.821Z,1.70
2018-09-26T10:07:14.134Z,1.87
2018-09-26T10:09:43.773Z,1.80
2018-09-26T10:12:13.071Z,1.47
2018-09-26T10:14:42.298Z,1.60
2018-09-26T10:17:11.588Z,2.00
2018-09-26T10:19:40.891Z,1.87
2018-09-26T10:22:10.394Z,1.70
2018-09-26T10:24:39.713Z,2.07
2018-09-26T10:27:09.028Z,1.90
2018-09-26T10:29:38.403Z,2.00
2018-09-26T10:32:07.801Z,2.10
2018-09-26T10:34:39.103Z,1.80
2018-09-26T10:37:08.364Z,2.00
2018-09-26T10:39:37.663Z,1.87
2018-09-26T10:42:07.050Z,2.07
2018-09-26T10:44:36.407Z,2.00
2018-09-26T10:47:05.682Z,2.03
2018-09-26T10:49:34.969Z,1.87
2018-09-26T10:52:04.290Z,2.07
2018-09-26T10:54:33.694Z,2.40
2018-09-26T10:57:03.011Z,1.70
2018-09-26T10:59:32.328Z,2.27
2018-09-26T11:02:02.099Z,2.23
2018-09-26T11:04:31.755Z,2.47
2018-09-26T11:07:01.334Z,2.30
2018-09-26T11:09:30.595Z,2.23
2018-09-26T11:11:59.799Z,2.00
2018-09-26T11:14:29.452Z,2.13
2018-09-26T11:16:58.787Z,2.10
2018-09-26T11:19:30.226Z,2.33
2018-09-26T11:21:59.429Z,2.40
2018-09-26T11:24:28.734Z,2.00
2018-09-26T11:26:58.064Z,1.83
2018-09-26T11:29:27.356Z,1.83
2018-09-26T11:31:56.665Z,1.70
2018-09-26T11:34:26.704Z,1.57
2018-09-26T11:36:57.022Z,2.07
2018-09-26T11:39:26.220Z,1.87
2018-09-26T11:41:55.478Z,1.77
2018-09-26T11:44:25.177Z,1.70
2018-09-26T11:46:55.229Z,1.70
2018-09-26T11:49:28.455Z,2.00
2018-09-26T11:51:57.714Z,1.80
2018-09-26T11:54:27.092Z,1.80
2018-09-26T11:56:56.467Z,1.87
2018-09-26T11:59:25.800Z,1.80
2018-09-26T12:01:55.124Z,1.53
2018-09-26T12:04:24.681Z,1.47
2018-09-26T12:06:54.093Z,1.50
2018-09-26T12:09:23.373Z,1.60
2018-09-26T12:11:53.733Z,1.50
2018-09-26T12:14:23.063Z,1.70
2018-09-26T12:16:52.430Z,1.60
2018-09-26T12:19:21.896Z,1.60
2018-09-26T12:21:51.207Z,1.80
2018-09-26T12:24:20.627Z,1.47
2018-09-26T12:26:49.853Z,1.97
2018-09-26T12:29:19.190Z,2.00
2018-09-26T12:31:48.560Z,1.80
2018-09-26T12:34:18.003Z,1.60
2018-09-26T12:36:47.480Z,1.73
2018-09-26T12:39:16.715Z,2.10
2018-09-26T12:41:46.320Z,1.53
2018-09-26T12:44:15.653Z,1.20
2018-09-26T12:46:44.959Z,1.70
2018-09-26T12:49:20.145Z,1.80
2018-09-26T12:51:49.563Z,1.80
2018-09-26T12:54:18.837Z,1.70
2018-09-26T12:56:48.110Z,1.87
2018-09-26T12:59:17.608Z,1.93
2018-09-26T13:01:46.955Z,1.70
2018-09-26T13:04:16.361Z,3.27
2018-09-26T13:06:45.817Z,1.90
2018-09-26T13:09:15.086Z,2.13
2018-09-26T13:11:44.350Z,1.97
2018-09-26T13:14:13.699Z,2.10
2018-09-26T13:16:42.884Z,2.00
2018-09-26T13:19:12.219Z,2.07
2018-09-26T13:21:41.518Z,1.80
2018-09-26T13:24:10.849Z,2.03
2018-09-26T13:26:40.233Z,1.90
2018-09-26T13:29:09.615Z,1.83
2018-09-26T13:31:38.855Z,1.60
2018-09-26T13:34:08.137Z,2.00
2018-09-26T13:36:37.435Z,2.17
2018-09-26T13:39:08.420Z,1.80
2018-09-26T13:41:37.608Z,2.07
2018-09-26T13:44:07.072Z,2.00
2018-09-26T13:46:36.538Z,1.67
2018-09-26T13:49:05.867Z,2.07
2018-09-26T13:51:35.196Z,1.80
2018-09-26T13:54:04.529Z,2.33
2018-09-26T13:56:33.792Z,2.30
2018-09-26T13:59:03.043Z,2.17
2018-09-26T14:01:32.397Z,1.90
2018-09-26T14:04:01.651Z,1.73
2018-09-26T14:06:30.888Z,2.27
2018-09-26T14:09:00.239Z,1.90
2018-09-26T14:11:29.524Z,2.30
2018-09-26T14:13:58.808Z,1.77
2018-09-26T14:16:28.051Z,2.00
2018-09-26T14:18:57.304Z,1.67
2018-09-26T14:21:26.639Z,1.80
2018-09-26T14:23:57.068Z,2.10
2018-09-26T14:26:26.593Z,1.73
2018-09-26T14:28:56.151Z,1.90
2018-09-26T14:31:25.694Z,1.80
2018-09-26T14:33:55.267Z,1.63
2018-09-26T14:36:24.721Z,1.80
2018-09-26T14:38:53.931Z,1.80
2018-09-26T14:41:23.742Z,1.80
2018-09-26T14:43:52.853Z,1.70
2018-09-26T14:46:24.236Z,2.07
2018-09-26T14:48:53.816Z,1.70
2018-09-26T14:51:23.051Z,1.70
2018-09-26T14:53:54.977Z,1.80
2018-09-26T14:56:24.281Z,1.80
2018-09-26T14:58:53.689Z,1.97
2018-09-26T15:01:24.090Z,1.93
2018-09-26T15:03:53.467Z,2.07
2018-09-26T15:06:22.744Z,1.60
2018-09-26T15:08:52.186Z,2.10
2018-09-26T15:11:21.539Z,1.83
2018-09-26T15:13:50.766Z,2.00
2018-09-26T15:16:20.101Z,1.97
2018-09-26T15:18:49.561Z,2.00
2018-09-26T15:21:19.214Z,2.20
2018-09-26T15:23:48.491Z,2.20
2018-09-26T15:26:17.906Z,2.27
2018-09-26T15:28:47.155Z,2.10
2018-09-26T15:31:16.759Z,2.20
2018-09-26T15:33:46.060Z,2.10
2018-09-26T15:36:15.356Z,2.10
2018-09-26T15:38:44.874Z,2.67
2018-09-26T15:41:14.186Z,2.90
2018-09-26T15:43:43.507Z,2.40
2018-09-26T15:46:12.820Z,2.63
2018-09-26T15:48:42.104Z,2.80
2018-09-26T15:51:11.479Z,3.00
2018-09-26T15:53:40.799Z,2.90
2018-09-26T15:56:10.199Z,2.60
2018-09-26T15:58:39.484Z,3.03
2018-09-26T16:01:08.955Z,2.97
2018-09-26T16:03:38.230Z,2.97
2018-09-26T16:06:07.601Z,3.83
2018-09-26T16:08:36.859Z,3.37
2018-09-26T16:11:06.156Z,2.90
2018-09-26T16:13:35.422Z,3.60
2018-09-26T16:16:04.792Z,3.03
2018-09-26T16:18:34.049Z,3.07
2018-09-26T16:21:03.329Z,3.43
2018-09-26T16:23:32.945Z,3.30
2018-09-26T16:26:02.587Z,3.50
2018-09-26T16:28:33.003Z,3.57
2018-09-26T16:31:02.351Z,3.10
2018-09-26T16:33:31.696Z,3.57
2018-09-26T16:36:00.943Z,3.27
2018-09-26T16:38:30.275Z,3.40
2018-09-26T16:40:59.542Z,2.90
2018-09-26T16:43:28.961Z,3.33
2018-09-26T16:45:58.200Z,3.20
2018-09-26T16:48:27.435Z,3.00
2018-09-26T16:50:56.771Z,3.60
2018-09-26T16:53:26.068Z,3.40
2018-09-26T16:55:55.375Z,3.70
2018-09-26T16:58:24.710Z,3.40
2018-09-26T17:00:53.954Z,3.30
2018-09-26T17:03:23.248Z,3.70
2018-09-26T17:05:53.863Z,3.20
2018-09-26T17:08:23.227Z,3.20
2018-09-26T17:10:52.410Z,3.60
2018-09-26T17:13:21.719Z,3.40
2018-09-26T17:15:53.096Z,2.93
2018-09-26T17:18:22.441Z,3.40
2018-09-26T17:20:51.747Z,3.30
2018-09-26T17:23:21.352Z,3.33
2018-09-26T17:25:50.595Z,3.53
2018-09-26T17:28:27.684Z,3.50
2018-09-26T17:30:56.935Z,3.47
2018-09-26T17:33:26.223Z,3.57
2018-09-26T17:35:55.539Z,3.60
2018-09-26T17:38:24.874Z,3.70
2018-09-26T17:40:54.125Z,4.00
2018-09-26T17:43:25.452Z,4.17
2018-09-26T17:45:54.728Z,3.70
2018-09-26T17:48:24.325Z,4.63
2018-09-26T17:50:53.533Z,4.17
2018-09-26T17:53:22.844Z,4.50
2018-09-26T17:55:52.084Z,3.80
2018-09-26T17:58:22.503Z,4.23
2018-09-26T18:00:51.887Z,4.10
2018-09-26T18:03:21.171Z,4.50
2018-09-26T18:05:50.538Z,4.10
2018-09-26T18:08:19.802Z,4.40
2018-09-26T18:10:49.127Z,4.70
2018-09-26T18:13:18.661Z,4.23
2018-09-26T18:15:48.011Z,4.23
2018-09-26T18:18:17.334Z,3.90
2018-09-26T18:20:46.620Z,3.80
2018-09-26T18:23:15.856Z,3.83
2018-09-26T18:25:45.140Z,4.20
2018-09-26T18:28:14.455Z,4.30
2018-09-26T18:30:44.171Z,4.37
2018-09-26T18:33:13.486Z,4.50
2018-09-26T18:35:42.757Z,3.70
2018-09-26T18:38:12.182Z,4.73
2018-09-26T18:40:41.811Z,3.97
2018-09-26T18:43:12.164Z,4.17
2018-09-26T18:45:42.875Z,4.23
2018-09-26T18:48:12.262Z,3.80
2018-09-26T18:50:41.535Z,3.80
2018-09-26T18:53:11.236Z,4.07
2018-09-26T18:55:40.503Z,3.87
2018-09-26T18:58:09.731Z,3.93
2018-09-26T19:00:38.991Z,4.00
2018-09-26T19:03:08.348Z,4.03
2018-09-26T19:05:38.714Z,3.80
2018-09-26T19:08:07.959Z,3.70
2018-09-26T19:10:37.264Z,3.90
2018-09-26T19:13:06.639Z,3.50
2018-09-26T19:15:35.947Z,3.73
2018-09-26T19:18:05.259Z,3.90
2018-09-26T19:20:34.647Z,3.80
2018-09-26T19:23:03.914Z,4.03
2018-09-26T19:25:33.184Z,3.80
2018-09-26T19:28:03.683Z,3.70
2018-09-26T19:30:32.877Z,3.50
2018-09-26T19:33:02.672Z,3.83
2018-09-26T19:35:31.917Z,3.63
2018-09-26T19:38:01.184Z,3.67
2018-09-26T19:40:32.604Z,3.20
2018-09-26T19:43:02.472Z,4.10
2018-09-26T19:45:31.781Z,3.90
2018-09-26T19:48:01.055Z,3.83
2018-09-26T19:50:30.350Z,3.40
2018-09-26T19:52:59.598Z,3.83
2018-09-26T19:55:28.895Z,3.97
2018-09-26T19:57:58.132Z,3.70
2018-09-26T20:00:27.379Z,3.87
2018-09-26T20:02:56.676Z,10.73
2018-09-26T20:05:26.019Z,4.20
2018-09-26T20:07:55.593Z,3.93
2018-09-26T20:10:25.926Z,3.50
2018-09-26T20:12:55.257Z,3.90
2018-09-26T20:15:28.713Z,3.50
2018-09-26T20:17:58.359Z,3.80
2018-09-26T20:20:27.659Z,4.30
2018-09-26T20:22:58.211Z,4.43
2018-09-26T20:25:27.430Z,3.87
2018-09-26T20:27:56.724Z,4.80
2018-09-26T20:30:26.049Z,3.97
2018-09-26T20:32:55.310Z,4.07
2018-09-26T20:35:24.675Z,3.93
2018-09-26T20:37:55.945Z,4.07
2018-09-26T20:40:25.171Z,4.53
2018-09-26T20:42:54.511Z,3.87
2018-09-26T20:45:23.790Z,3.90
2018-09-26T20:47:53.096Z,4.20
2018-09-26T20:50:23.450Z,7.87
2018-09-26T20:52:52.846Z,4.23
2018-09-26T20:55:22.171Z,3.97
2018-09-26T20:57:51.524Z,4.10
2018-09-26T21:00:22.856Z,4.30
2018-09-26T21:02:52.443Z,4.13
2018-09-26T21:05:21.761Z,3.87
2018-09-26T21:07:51.122Z,4.10
2018-09-26T21:10:20.467Z,4.27
2018-09-26T21:12:49.875Z,4.27
2018-09-26T21:15:19.156Z,3.97
2018-09-26T21:17:48.762Z,4.07
2018-09-26T21:20:18.071Z,3.93
2018-09-26T21:22:51.304Z,4.00
2018-09-26T21:25:20.723Z,3.70
2018-09-26T21:27:49.963Z,3.80
2018-09-26T21:30:19.235Z,3.80
2018-09-26T21:32:48.519Z,3.90
2018-09-26T21:35:17.876Z,4.10
2018-09-26T21:37:47.092Z,4.20
2018-09-26T21:40:16.429Z,3.87
2018-09-26T21:42:46.126Z,4.50
2018-09-26T21:45:15.418Z,4.37
2018-09-26T21:47:44.792Z,4.30
2018-09-26T21:50:14.355Z,4.30
2018-09-26T21:52:43.531Z,4.80
2018-09-26T21:55:12.816Z,4.03
2018-09-26T21:57:42.235Z,4.57
2018-09-26T22:00:12.543Z,4.90
2018-09-26T22:02:41.843Z,4.97
2018-09-26T22:05:11.160Z,4.67
2018-09-26T22:07:40.551Z,4.60
2018-09-26T22:10:09.908Z,4.80
2018-09-26T22:12:39.235Z,4.43
2018-09-26T22:15:15.559Z,5.03
2018-09-26T22:17:44.849Z,5.47
2018-09-26T22:20:14.119Z,5.20
2018-09-26T22:22:43.366Z,5.30
2018-09-26T22:25:12.653Z,5.63
2018-09-26T22:27:41.997Z,5.43
2018-09-26T22:30:11.266Z,5.40
2018-09-26T22:32:40.585Z,5.30
2018-09-26T22:35:09.898Z,5.07
2018-09-26T22:37:39.194Z,5.57
2018-09-26T22:40:08.461Z,5.70
2018-09-26T22:42:37.754Z,5.70
2018-09-26T22:45:07.051Z,5.57
2018-09-26T22:47:36.292Z,5.10
2018-09-26T22:50:05.519Z,5.20
2018-09-26T22:52:34.802Z,5.40
2018-09-26T22:55:04.136Z,5.50
2018-09-26T22:57:33.403Z,5.57
2018-09-26T23:00:02.676Z,5.30
2018-09-26T23:02:31.980Z,5.47
2018-09-26T23:05:01.296Z,5.53
2018-09-26T23:07:30.668Z,5.13
2018-09-26T23:09:59.987Z,5.27
2018-09-26T23:12:29.374Z,5.77
2018-09-26T23:14:58.955Z,5.10
2018-09-26T23:17:28.307Z,5.40
2018-09-26T23:19:57.594Z,5.60
2018-09-26T23:22:26.906Z,5.37
2018-09-26T23:24:56.275Z,5.67
2018-09-26T23:27:25.537Z,5.20
2018-09-26T23:29:54.807Z,5.40
2018-09-26T23:32:24.063Z,5.50
2018-09-26T23:34:53.442Z,5.30
2018-09-26T23:37:22.719Z,5.70
2018-09-26T23:39:52.327Z,5.40
2018-09-26T23:42:21.842Z,6.13
2018-09-26T23:44:51.111Z,5.20
2018-09-26T23:47:20.378Z,6.03
2018-09-26T23:49:49.692Z,6.13
2018-09-26T23:52:18.987Z,6.27
2018-09-26T23:54:48.207Z,6.07
2018-09-26T23:57:17.646Z,5.93
2018-09-26T23:59:46.981Z,6.37
